createdAt,value
2019-06-11T00:02:08.523Z,12.40
2019-06-11T00:04:22.855Z,10.57
2019-06-11T00:06:53.417Z,15.30
2019-06-11T00:09:22.219Z,12.70
2019-06-11T00:11:54.371Z,14.33
2019-06-11T00:14:23.319Z,14.60
2019-06-11T00:16:53.640Z,13.53
2019-06-11T00:19:22.966Z,12.30
2019-06-11T00:21:52.457Z,17.80
2019-06-11T00:24:22.595Z,15.83
2019-06-11T00:26:53.071Z,12.73
2019-06-11T00:29:22.865Z,13.63
2019-06-11T00:31:53.235Z,13.87
2019-06-11T00:34:22.882Z,12.17
2019-06-11T00:36:52.784Z,13.73
2019-06-11T00:39:22.414Z,12.00
2019-06-11T00:41:52.742Z,13.23
2019-06-11T00:44:23.319Z,11.43
2019-06-11T00:46:53.337Z,10.67
2019-06-11T00:49:23.325Z,13.47
2019-06-11T00:51:52.479Z,13.97
2019-06-11T00:54:23.186Z,11.93
2019-06-11T00:56:52.131Z,11.93
2019-06-11T00:59:23.317Z,22.90
2019-06-11T01:01:52.627Z,13.00
2019-06-11T01:04:23.267Z,18.50
2019-06-11T01:06:52.802Z,15.90
2019-06-11T01:09:23.593Z,15.80
2019-06-11T01:11:53.108Z,14.57
2019-06-11T01:14:24.008Z,13.20
2019-06-11T01:16:53.036Z,17.40
2019-06-11T01:19:23.331Z,13.40
2019-06-11T01:21:52.446Z,17.80
2019-06-11T01:24:23.112Z,11.67
2019-06-11T01:26:52.126Z,16.33
2019-06-11T01:29:22.706Z,13.00
2019-06-11T01:31:53.351Z,13.07
2019-06-11T01:34:22.348Z,10.80
2019-06-11T01:36:52.354Z,14.87
2019-06-11T01:39:22.347Z,12.60
2019-06-11T01:41:53.164Z,14.83
2019-06-11T01:44:23.128Z,14.23
2019-06-11T01:46:52.788Z,14.43
2019-06-11T01:49:22.431Z,15.83
2019-06-11T01:51:52.744Z,13.93
2019-06-11T01:54:22.425Z,11.93
2019-06-11T01:56:52.422Z,14.67
2019-06-11T01:59:23.238Z,19.17
2019-06-11T02:01:52.275Z,16.20
2019-06-11T02:04:22.794Z,15.90
2019-06-11T02:06:53.213Z,14.53
2019-06-11T02:09:22.636Z,17.40
2019-06-11T02:11:52.187Z,14.20
2019-06-11T02:14:22.780Z,12.40
2019-06-11T02:16:53.211Z,13.50
2019-06-11T02:19:24.315Z,14.37
2019-06-11T02:21:52.860Z,16.97
2019-06-11T02:24:23.213Z,13.83
2019-06-11T02:26:52.747Z,14.43
2019-06-11T02:29:22.442Z,13.80
2019-06-11T02:31:53.809Z,12.83
2019-06-11T02:34:52.399Z,14.53
2019-06-11T02:36:52.827Z,14.65
2019-06-11T02:39:28.014Z,14.13
2019-06-11T02:41:52.211Z,15.00
2019-06-11T02:44:27.797Z,15.60
2019-06-11T02:46:52.190Z,11.60
2019-06-11T02:49:27.193Z,12.90
2019-06-11T02:51:52.240Z,12.97
2019-06-11T02:54:28.810Z,13.80
2019-06-11T02:56:52.531Z,11.55
2019-06-11T02:59:28.561Z,14.77
2019-06-11T03:01:52.346Z,14.90
2019-06-11T03:04:46.839Z,11.47
2019-06-11T03:06:53.425Z,15.20
2019-06-11T03:09:29.567Z,15.47
2019-06-11T03:12:01.755Z,14.53
2019-06-11T03:14:36.085Z,12.98
2019-06-11T03:17:04.702Z,13.08
2019-06-11T03:19:35.108Z,12.20
2019-06-11T03:22:04.313Z,12.23
2019-06-11T03:24:35.843Z,12.77
2019-06-11T03:27:04.132Z,12.83
2019-06-11T03:29:34.545Z,13.32
2019-06-11T03:36:12.096Z,15.67
2019-06-11T03:37:32.118Z,14.70
2019-06-11T03:39:50.631Z,12.55
2019-06-11T03:42:06.576Z,14.60
2019-06-11T03:44:36.344Z,14.27
2019-06-11T03:47:05.226Z,16.37
2019-06-11T03:49:36.363Z,18.93
2019-06-11T03:52:05.111Z,16.97
2019-06-11T03:54:34.872Z,16.63
2019-06-11T03:57:03.911Z,15.87
2019-06-11T03:59:35.328Z,16.73
2019-06-11T04:02:03.150Z,14.63
2019-06-11T04:04:36.044Z,16.70
2019-06-11T04:07:15.281Z,15.10
2019-06-11T04:09:34.948Z,15.40
2019-06-11T04:12:04.411Z,15.10
2019-06-11T04:14:34.585Z,16.40
2019-06-11T04:17:19.036Z,16.73
2019-06-11T04:19:35.335Z,19.50
2019-06-11T04:22:04.369Z,15.10
2019-06-11T04:24:35.619Z,15.67
2019-06-11T04:27:03.879Z,17.23
2019-06-11T04:29:35.609Z,14.70
2019-06-11T04:32:03.148Z,16.27
2019-06-11T04:34:36.187Z,16.00
2019-06-11T04:37:15.678Z,14.50
2019-06-11T04:39:36.420Z,13.37
2019-06-11T04:42:11.690Z,13.73
2019-06-11T04:44:41.945Z,12.00
2019-06-11T04:47:11.284Z,11.73
2019-06-11T04:49:43.663Z,11.90
2019-06-11T04:52:12.803Z,12.30
2019-06-11T04:54:43.770Z,13.63
2019-06-11T04:57:13.468Z,12.23
2019-06-11T04:59:46.091Z,10.90
2019-06-11T05:04:57.131Z,12.40
2019-06-11T05:07:33.906Z,10.80
2019-06-11T05:09:46.663Z,11.30
2019-06-11T05:12:17.252Z,12.80
2019-06-11T05:14:52.174Z,12.43
2019-06-11T05:17:17.257Z,11.20
2019-06-11T05:19:47.131Z,11.20
2019-06-11T05:22:17.408Z,9.33
2019-06-11T05:24:46.382Z,13.07
2019-06-11T05:27:17.091Z,10.80
2019-06-11T05:29:45.701Z,10.60
2019-06-11T05:32:17.764Z,12.40
2019-06-11T05:34:46.644Z,13.30
2019-06-11T05:37:15.519Z,11.43
2019-06-11T05:39:44.438Z,11.40
2019-06-11T05:42:13.274Z,10.00
2019-06-11T05:44:42.110Z,10.73
2019-06-11T05:47:11.303Z,9.50
2019-06-11T05:49:41.198Z,11.70
2019-06-11T05:52:11.325Z,10.20
2019-06-11T05:54:41.079Z,9.40
2019-06-11T05:57:10.379Z,10.00
2019-06-11T05:59:40.641Z,11.77
2019-06-11T06:02:11.560Z,8.20
2019-06-11T06:04:41.263Z,8.67
2019-06-11T06:07:10.764Z,9.87
2019-06-11T06:09:41.358Z,11.27
2019-06-11T06:12:10.641Z,9.93
2019-06-11T06:14:40.583Z,11.53
2019-06-11T06:17:11.161Z,11.20
2019-06-11T06:19:40.718Z,10.67
2019-06-11T06:22:10.889Z,12.13
2019-06-11T06:24:45.234Z,10.60
2019-06-11T06:27:10.669Z,12.87
2019-06-11T06:29:41.080Z,9.27
2019-06-11T06:32:10.623Z,10.17
2019-06-11T06:34:41.392Z,11.43
2019-06-11T06:37:10.983Z,9.43
2019-06-11T06:39:40.189Z,11.13
2019-06-11T06:42:11.354Z,11.97
2019-06-11T06:44:41.149Z,9.83
2019-06-11T06:47:12.065Z,7.87
2019-06-11T06:49:41.277Z,9.93
2019-06-11T06:52:10.796Z,9.03
2019-06-11T06:54:45.791Z,10.30
2019-06-11T06:57:10.764Z,9.37
2019-06-11T06:59:42.166Z,8.97
2019-06-11T07:02:10.718Z,8.67
2019-06-11T07:04:41.675Z,9.67
2019-06-11T07:07:11.397Z,11.17
2019-06-11T07:09:43.636Z,9.87
2019-06-11T07:12:12.367Z,9.03
2019-06-11T07:14:44.097Z,10.20
2019-06-11T07:17:12.847Z,9.00
2019-06-11T07:19:45.557Z,10.20
2019-06-11T07:22:12.531Z,8.90
2019-06-11T07:24:43.955Z,12.97
2019-06-11T07:27:11.976Z,10.83
2019-06-11T07:29:44.392Z,12.70
2019-06-11T07:32:11.549Z,13.00
2019-06-11T07:34:47.817Z,12.20
2019-06-11T07:37:11.813Z,14.00
2019-06-11T07:39:45.073Z,14.30
2019-06-11T07:42:11.651Z,15.67
2019-06-11T07:44:43.734Z,16.30
2019-06-11T07:47:11.291Z,16.60
2019-06-11T07:49:46.119Z,15.70
2019-06-11T07:52:12.905Z,19.67
2019-06-11T07:54:46.352Z,16.60
2019-06-11T07:57:14.290Z,20.30
2019-06-11T07:59:45.650Z,20.70
2019-06-11T08:02:13.339Z,18.77
2019-06-11T08:04:51.009Z,17.50
2019-06-11T08:07:13.080Z,20.80
2019-06-11T08:10:08.339Z,18.77
2019-06-11T08:12:13.453Z,21.00
2019-06-11T08:14:51.176Z,20.87
2019-06-11T08:17:14.365Z,20.43
2019-06-11T08:20:00.387Z,21.43
2019-06-11T08:22:24.244Z,18.93
2019-06-11T08:24:57.183Z,16.93
2019-06-11T08:27:31.822Z,16.57
2019-06-11T08:29:47.146Z,18.33
2019-06-11T08:32:15.817Z,18.60
2019-06-11T08:34:45.791Z,18.90
2019-06-11T08:37:14.673Z,16.97
2019-06-11T08:40:02.974Z,17.23
2019-06-11T08:42:14.036Z,14.83
2019-06-11T08:45:02.103Z,14.90
2019-06-11T08:47:13.290Z,16.87
2019-06-11T08:49:44.955Z,18.33
2019-06-11T08:52:12.710Z,17.17
2019-06-11T08:54:44.108Z,18.47
2019-06-11T08:57:11.923Z,17.83
2019-06-11T08:59:48.934Z,18.00
2019-06-11T09:02:11.961Z,19.30
2019-06-11T09:04:43.657Z,18.57
2019-06-11T09:07:11.305Z,18.77
2019-06-11T09:09:43.597Z,18.53
2019-06-11T09:12:11.368Z,19.87
2019-06-11T09:14:45.560Z,21.73
2019-06-11T09:17:11.008Z,19.37
2019-06-11T09:19:42.435Z,18.33
2019-06-11T09:22:10.865Z,18.87
2019-06-11T09:24:41.961Z,18.33
2019-06-11T09:27:10.311Z,19.97
2019-06-11T09:29:41.954Z,16.33
2019-06-11T09:32:11.236Z,21.97
2019-06-11T09:34:42.296Z,19.83
2019-06-11T09:37:11.186Z,18.70
2019-06-11T09:39:42.374Z,20.37
2019-06-11T09:42:10.763Z,20.80
2019-06-11T09:44:40.651Z,21.30
2019-06-11T09:47:10.644Z,21.13
2019-06-11T09:49:42.840Z,20.23
2019-06-11T09:52:10.517Z,20.40
2019-06-11T09:54:41.170Z,22.23
2019-06-11T09:57:11.096Z,21.90
2019-06-11T09:59:40.660Z,16.70
2019-06-11T10:02:10.901Z,18.83
2019-06-11T10:04:41.144Z,19.97
2019-06-11T10:07:10.768Z,21.27
2019-06-11T10:09:40.687Z,20.57
2019-06-11T10:12:10.629Z,19.83
2019-06-11T10:14:39.617Z,18.63
2019-06-11T10:17:12.020Z,21.73
2019-06-11T10:19:40.513Z,21.50
2019-06-11T10:22:10.720Z,20.40
2019-06-11T10:24:41.092Z,22.73
2019-06-11T10:27:10.543Z,22.53
2019-06-11T10:29:39.369Z,19.80
2019-06-11T10:32:10.659Z,24.10
2019-06-11T10:34:40.770Z,19.00
2019-06-11T10:37:10.429Z,21.93
2019-06-11T10:39:40.172Z,27.17
2019-06-11T10:42:11.050Z,21.13
2019-06-11T10:44:40.463Z,23.87
2019-06-11T10:47:13.082Z,22.83
2019-06-11T10:49:41.413Z,21.50
2019-06-11T10:52:10.728Z,21.60
2019-06-11T10:54:40.498Z,21.70
2019-06-11T10:57:10.746Z,23.13
2019-06-11T10:59:39.690Z,25.57
2019-06-11T11:02:11.620Z,23.50
2019-06-11T11:04:40.105Z,21.53
2019-06-11T11:07:10.745Z,23.33
2019-06-11T11:09:39.468Z,21.77
2019-06-11T11:12:21.691Z,26.40
2019-06-11T11:14:40.834Z,25.97
2019-06-11T11:17:11.107Z,27.77
2019-06-11T11:19:40.533Z,26.97
2019-06-11T11:22:11.842Z,22.93
2019-06-11T11:24:40.520Z,24.50
2019-06-11T11:27:10.320Z,22.87
2019-06-11T11:29:40.390Z,22.37
2019-06-11T11:32:10.190Z,24.23
2019-06-11T11:34:39.438Z,26.17
2019-06-11T11:37:10.548Z,22.27
2019-06-11T11:39:41.056Z,24.63
2019-06-11T11:42:11.488Z,22.10
2019-06-11T11:44:40.467Z,23.03
2019-06-11T11:47:10.756Z,23.20
2019-06-11T11:49:41.877Z,24.50
2019-06-11T11:52:13.532Z,24.60
2019-06-11T11:54:47.127Z,23.13
2019-06-11T11:57:20.965Z,25.07
2019-06-11T11:59:54.013Z,24.57
2019-06-11T12:02:21.871Z,25.37
2019-06-11T12:04:58.794Z,25.30
2019-06-11T12:07:21.128Z,25.70
2019-06-11T12:09:51.861Z,23.07
2019-06-11T12:12:20.704Z,23.00
2019-06-11T12:14:54.253Z,24.37
2019-06-11T12:17:20.271Z,27.77
2019-06-11T12:19:51.102Z,23.83
2019-06-11T12:22:20.427Z,26.30
2019-06-11T12:24:56.489Z,26.60
2019-06-11T12:27:20.563Z,26.47
2019-06-11T12:29:51.756Z,23.97
2019-06-11T12:32:21.186Z,24.97
2019-06-11T12:34:53.160Z,22.70
2019-06-11T12:37:20.883Z,25.23
2019-06-11T12:39:53.060Z,21.93
2019-06-11T12:42:20.539Z,23.70
2019-06-11T12:44:51.914Z,27.73
2019-06-11T12:47:20.939Z,25.47
2019-06-11T12:49:52.418Z,25.80
2019-06-11T12:52:21.161Z,23.03
2019-06-11T12:54:52.314Z,26.10
2019-06-11T12:57:20.627Z,26.50
2019-06-11T12:59:51.165Z,25.37
2019-06-11T13:02:22.048Z,22.93
2019-06-11T13:04:51.445Z,23.30
2019-06-11T13:07:20.958Z,24.20
2019-06-11T13:10:02.918Z,23.93
2019-06-11T13:12:29.749Z,25.77
2019-06-11T13:15:02.660Z,22.67
2019-06-11T13:17:32.481Z,25.60
2019-06-11T13:20:04.448Z,25.27
2019-06-11T13:22:34.832Z,23.87
2019-06-11T13:25:07.115Z,24.60
2019-06-11T13:27:38.939Z,23.40
2019-06-11T13:30:10.211Z,23.43
2019-06-11T13:32:42.997Z,24.00
2019-06-11T13:35:10.686Z,23.17
2019-06-11T13:37:46.099Z,23.60
2019-06-11T13:40:16.967Z,22.53
2019-06-11T13:42:48.891Z,21.83
2019-06-11T13:45:18.265Z,23.00
2019-06-11T13:47:47.404Z,22.00
2019-06-11T13:50:18.071Z,24.40
2019-06-11T13:52:46.913Z,20.90
2019-06-11T13:55:16.418Z,21.43
2019-06-11T13:57:45.756Z,23.27
2019-06-11T14:00:21.094Z,21.67
2019-06-11T14:02:54.139Z,23.10
2019-06-11T14:05:21.905Z,23.90
2019-06-11T14:07:53.040Z,23.43
2019-06-11T14:10:22.047Z,22.03
2019-06-11T14:12:53.044Z,22.70
2019-06-11T14:15:22.438Z,21.53
2019-06-11T14:17:55.558Z,21.80
2019-06-11T14:20:31.472Z,22.30
2019-06-11T14:23:05.626Z,22.87
2019-06-11T14:25:34.083Z,22.63
2019-06-11T14:28:06.633Z,21.97
2019-06-11T14:30:33.698Z,22.63
2019-06-11T14:33:05.901Z,23.47
2019-06-11T14:35:33.237Z,21.70
2019-06-11T14:38:11.042Z,22.50
2019-06-11T14:40:40.598Z,21.40
2019-06-11T14:43:15.811Z,21.83
2019-06-11T14:45:44.625Z,21.73
2019-06-11T14:48:15.091Z,23.17
2019-06-11T14:50:46.693Z,25.00
2019-06-11T14:53:15.520Z,23.00
2019-06-11T14:55:44.576Z,21.77
2019-06-11T14:58:13.356Z,21.10
2019-06-11T15:00:43.144Z,22.13
2019-06-11T15:03:17.551Z,22.47
2019-06-11T15:05:47.212Z,21.70
2019-06-11T15:08:16.374Z,20.40
2019-06-11T15:10:45.143Z,22.20
2019-06-11T15:13:14.007Z,21.70
2019-06-11T15:15:43.067Z,21.70
2019-06-11T15:18:16.381Z,23.97
2019-06-11T15:20:49.813Z,24.17
2019-06-11T15:23:21.334Z,23.20
2019-06-11T15:25:51.473Z,22.73
2019-06-11T15:28:20.936Z,23.73
2019-06-11T15:30:50.522Z,23.53
2019-06-11T15:33:19.396Z,23.87
2019-06-11T15:35:50.843Z,26.77
2019-06-11T15:38:21.877Z,25.97
2019-06-11T15:40:50.740Z,25.40
2019-06-11T15:43:21.436Z,25.60
2019-06-11T15:45:50.913Z,23.83
2019-06-11T15:48:21.404Z,25.47
2019-06-11T15:50:51.635Z,28.37
2019-06-11T15:53:21.560Z,23.53
2019-06-11T15:55:51.663Z,24.60
2019-06-11T15:58:21.047Z,24.53
2019-06-11T16:00:50.670Z,25.60
2019-06-11T16:03:20.727Z,26.83
2019-06-11T16:05:51.038Z,25.60
2019-06-11T16:08:20.108Z,25.00
2019-06-11T16:10:50.954Z,26.70
2019-06-11T16:13:20.862Z,26.07
2019-06-11T16:15:51.454Z,25.83
2019-06-11T16:18:21.700Z,23.37
2019-06-11T16:20:51.574Z,27.17
2019-06-11T16:23:22.000Z,25.97
2019-06-11T16:25:51.156Z,28.07
2019-06-11T16:28:20.058Z,26.47
2019-06-11T16:30:50.679Z,24.60
2019-06-11T16:33:21.102Z,25.63
2019-06-11T16:35:51.506Z,26.07
2019-06-11T16:38:20.721Z,26.13
2019-06-11T16:40:51.683Z,26.43
2019-06-11T16:43:21.757Z,24.80
2019-06-11T16:46:01.795Z,26.70
2019-06-11T16:48:23.456Z,27.03
2019-06-11T16:50:52.502Z,24.83
2019-06-11T16:53:21.681Z,28.27
2019-06-11T16:55:51.188Z,24.37
2019-06-11T16:58:21.908Z,27.47
2019-06-11T17:00:50.716Z,25.20
2019-06-11T17:03:24.193Z,27.77
2019-06-11T17:05:51.326Z,28.17
2019-06-11T17:08:25.819Z,26.30
2019-06-11T17:10:51.044Z,19.00
2019-06-11T17:13:20.614Z,18.30
2019-06-11T17:15:51.014Z,16.30
2019-06-11T17:18:23.379Z,13.57
2019-06-11T17:20:51.679Z,13.53
2019-06-11T17:23:23.379Z,12.43
2019-06-11T17:25:51.174Z,13.40
2019-06-11T17:28:23.956Z,13.97
2019-06-11T17:30:51.153Z,12.97
2019-06-11T17:33:24.010Z,13.37
2019-06-11T17:35:51.729Z,13.07
2019-06-11T17:38:22.805Z,12.37
2019-06-11T17:40:51.180Z,12.97
2019-06-11T17:43:24.885Z,12.87
2019-06-11T17:45:51.018Z,13.17
2019-06-11T17:48:24.083Z,12.10
2019-06-11T17:50:50.770Z,12.40
2019-06-11T17:53:22.477Z,13.27
2019-06-11T17:55:52.976Z,14.30
2019-06-11T17:58:25.501Z,16.17
2019-06-11T18:00:57.155Z,12.83
2019-06-11T18:03:25.774Z,12.87
2019-06-11T18:05:53.711Z,15.53
2019-06-11T18:08:26.718Z,15.10
2019-06-11T18:10:53.356Z,23.03
2019-06-11T18:13:33.912Z,21.37
2019-06-11T18:16:02.714Z,24.20
2019-06-11T18:18:31.775Z,22.17
2019-06-11T18:21:01.519Z,21.67
2019-06-11T18:23:30.501Z,22.50
2019-06-11T18:26:10.118Z,21.40
2019-06-11T18:28:41.313Z,24.67
2019-06-11T18:31:09.693Z,25.13
2019-06-11T18:33:40.613Z,20.53
2019-06-11T18:36:10.493Z,21.27
2019-06-11T18:38:41.790Z,22.60
2019-06-11T18:41:11.103Z,25.50
2019-06-11T18:43:40.724Z,27.43
2019-06-11T18:46:10.201Z,32.40
2019-06-11T18:48:40.813Z,31.20
2019-06-11T18:51:10.143Z,35.37
2019-06-11T18:53:41.052Z,43.60
2019-06-11T18:56:11.614Z,48.10
2019-06-11T18:58:40.975Z,42.27
2019-06-11T19:01:13.482Z,45.27
2019-06-11T19:03:56.741Z,41.67
2019-06-11T19:06:12.939Z,46.90
2019-06-11T19:08:41.872Z,42.17
2019-06-11T19:11:10.785Z,42.97
2019-06-11T19:13:40.544Z,44.50
2019-06-11T19:16:11.013Z,44.60
2019-06-11T19:18:39.942Z,40.23
2019-06-11T19:21:09.000Z,40.23
2019-06-11T19:23:37.755Z,46.20
2019-06-11T19:26:06.582Z,44.70
2019-06-11T19:28:35.572Z,44.23
2019-06-11T19:31:04.560Z,53.13
2019-06-11T19:33:36.261Z,54.13
2019-06-11T19:36:03.939Z,46.43
2019-06-11T19:38:36.250Z,52.37
2019-06-11T19:41:03.130Z,49.70
2019-06-11T19:43:40.079Z,61.37
2019-06-11T19:46:02.767Z,51.10
2019-06-11T19:48:34.267Z,46.83
2019-06-11T19:51:03.497Z,49.70
2019-06-11T19:53:34.432Z,48.97
2019-06-11T19:56:03.198Z,55.50
2019-06-11T19:58:35.869Z,53.43
2019-06-11T20:01:03.079Z,57.93
2019-06-11T20:03:33.205Z,48.73
2019-06-11T20:06:02.200Z,47.00
2019-06-11T20:08:34.320Z,46.40
2019-06-11T20:11:02.282Z,44.33
2019-06-11T20:13:34.575Z,41.30
2019-06-11T20:16:01.527Z,55.10
2019-06-11T20:18:31.705Z,49.63
2019-06-11T20:21:01.131Z,46.10
2019-06-11T20:23:34.927Z,46.87
2019-06-11T20:26:03.141Z,46.10
2019-06-11T20:28:33.998Z,40.73
2019-06-11T20:31:02.515Z,50.43
2019-06-11T20:33:34.593Z,43.53
2019-06-11T20:36:01.718Z,44.13
2019-06-11T20:38:33.894Z,42.27
2019-06-11T20:41:01.330Z,43.37
2019-06-11T20:43:32.701Z,41.87
2019-06-11T20:46:01.291Z,47.80
2019-06-11T20:48:31.380Z,47.67
2019-06-11T20:51:01.031Z,52.67
2019-06-11T20:53:33.490Z,52.70
2019-06-11T20:56:04.138Z,51.67
2019-06-11T20:58:32.242Z,56.67
2019-06-11T21:01:02.015Z,44.87
2019-06-11T21:03:30.919Z,45.80
2019-06-11T21:06:00.594Z,41.70
2019-06-11T21:08:30.912Z,45.50
2019-06-11T21:11:00.881Z,58.10
2019-06-11T21:13:31.130Z,54.93
2019-06-11T21:16:00.593Z,50.53
2019-06-11T21:18:35.169Z,55.60
2019-06-11T21:21:01.199Z,54.67
2019-06-11T21:23:31.269Z,59.23
2019-06-11T21:26:01.043Z,56.53
2019-06-11T21:28:30.472Z,46.50
2019-06-11T21:31:00.413Z,53.10
2019-06-11T21:33:29.559Z,42.50
2019-06-11T21:36:00.698Z,37.00
2019-06-11T21:38:30.035Z,37.90
2019-06-11T21:41:00.919Z,39.07
2019-06-11T21:43:30.884Z,38.70
2019-06-11T21:46:01.294Z,39.53
2019-06-11T21:48:30.930Z,46.23
2019-06-11T21:51:00.920Z,51.17
2019-06-11T21:53:30.634Z,42.17
2019-06-11T21:56:00.525Z,45.77
2019-06-11T21:58:30.315Z,46.47
2019-06-11T22:01:02.691Z,35.90
2019-06-11T22:03:30.578Z,39.50
2019-06-11T22:06:00.482Z,32.77
2019-06-11T22:08:31.252Z,33.97
2019-06-11T22:11:00.545Z,42.47
2019-06-11T22:13:30.604Z,40.73
2019-06-11T22:16:00.806Z,38.13
2019-06-11T22:18:32.020Z,43.23
2019-06-11T22:21:00.502Z,47.87
2019-06-11T22:23:29.578Z,56.43
2019-06-11T22:26:00.450Z,43.20
2019-06-11T22:28:30.235Z,45.17
2019-06-11T22:31:01.439Z,48.37
2019-06-11T22:33:30.807Z,48.13
2019-06-11T22:36:00.926Z,46.80
2019-06-11T22:38:30.708Z,49.77
2019-06-11T22:41:01.145Z,43.97
2019-06-11T22:43:30.291Z,48.57
2019-06-11T22:46:00.470Z,42.40
2019-06-11T22:48:30.960Z,43.77
2019-06-11T22:51:00.852Z,42.63
2019-06-11T22:53:30.951Z,58.73
2019-06-11T22:56:00.762Z,56.90
2019-06-11T22:58:30.906Z,57.63
2019-06-11T23:01:00.911Z,58.23
2019-06-11T23:03:31.721Z,50.07
2019-06-11T23:06:00.670Z,49.20
2019-06-11T23:08:30.645Z,43.07
2019-06-11T23:10:59.598Z,47.77
2019-06-11T23:13:31.067Z,43.27
2019-06-11T23:16:00.348Z,48.07
2019-06-11T23:18:29.509Z,58.23
2019-06-11T23:21:00.920Z,40.90
2019-06-11T23:23:30.909Z,52.23
2019-06-11T23:25:59.356Z,46.67
2019-06-11T23:28:28.132Z,38.93
2019-06-11T23:30:56.957Z,52.70
2019-06-11T23:33:25.735Z,42.03
2019-06-11T23:35:55.741Z,42.50
2019-06-11T23:38:24.755Z,42.17
2019-06-11T23:40:55.491Z,41.53
2019-06-11T23:43:24.309Z,41.43
2019-06-11T23:45:55.007Z,37.33
2019-06-11T23:48:23.560Z,42.53
2019-06-11T23:50:53.507Z,41.93
2019-06-11T23:53:22.823Z,39.20
2019-06-11T23:55:51.588Z,46.57
2019-06-11T23:58:21.324Z,44.50
